createdAt,value
2023-03-31T00:00:02.456Z,4.80
2023-03-31T00:01:02.453Z,6.40
2023-03-31T00:02:02.435Z,6.20
2023-03-31T00:03:02.613Z,5.60
2023-03-31T00:04:02.612Z,6.20
2023-03-31T00:05:02.472Z,5.90
2023-03-31T00:06:02.546Z,5.60
2023-03-31T00:07:02.394Z,6.50
2023-03-31T00:08:02.352Z,7.00
2023-03-31T00:09:02.361Z,6.30
2023-03-31T00:10:16.691Z,5.30
2023-03-31T00:11:02.325Z,6.70
2023-03-31T00:12:02.321Z,4.20
2023-03-31T00:13:02.317Z,6.80
2023-03-31T00:14:02.309Z,6.20
2023-03-31T00:15:02.316Z,7.90
2023-03-31T00:16:02.330Z,10.20
2023-03-31T00:17:02.288Z,8.10
2023-03-31T00:18:02.332Z,5.20
2023-03-31T00:19:02.267Z,5.80
2023-03-31T00:20:02.212Z,6.90
2023-03-31T00:21:02.490Z,6.70
2023-03-31T00:22:02.195Z,6.90
2023-03-31T00:23:02.187Z,6.00
2023-03-31T00:24:02.208Z,6.10
2023-03-31T00:25:02.171Z,5.60
2023-03-31T00:26:02.163Z,7.00
2023-03-31T00:27:02.147Z,8.10
2023-03-31T00:28:02.129Z,5.80
2023-03-31T00:29:02.123Z,7.00
2023-03-31T00:30:02.110Z,8.10
2023-03-31T00:31:02.231Z,7.00
2023-03-31T00:32:02.142Z,6.80
2023-03-31T00:33:02.152Z,5.80
2023-03-31T00:34:02.068Z,3.70
2023-03-31T00:35:02.071Z,5.50
2023-03-31T00:36:02.484Z,5.40
2023-03-31T00:37:02.059Z,8.10
2023-03-31T00:38:02.018Z,5.90
2023-03-31T00:39:02.024Z,5.90
2023-03-31T00:40:01.993Z,5.40
2023-03-31T00:41:02.005Z,6.30
2023-03-31T00:42:02.004Z,6.10
2023-03-31T00:43:01.965Z,4.80
2023-03-31T00:44:01.949Z,7.30
2023-03-31T00:45:01.941Z,4.60
2023-03-31T00:46:02.000Z,7.20
2023-03-31T00:47:01.926Z,4.50
2023-03-31T00:48:01.969Z,4.60
2023-03-31T00:49:01.903Z,7.30
2023-03-31T00:50:01.894Z,6.90
2023-03-31T00:51:01.902Z,7.80
2023-03-31T00:52:01.869Z,6.90
2023-03-31T00:53:01.857Z,4.70
2023-03-31T00:54:01.833Z,8.80
2023-03-31T00:55:01.880Z,4.60
2023-03-31T00:56:01.836Z,4.50
2023-03-31T00:57:01.841Z,4.20
2023-03-31T00:58:01.801Z,5.60
2023-03-31T00:59:01.791Z,8.80
2023-03-31T01:00:01.901Z,4.90
2023-03-31T01:01:01.870Z,5.50
2023-03-31T01:02:01.758Z,5.50
2023-03-31T01:03:01.775Z,5.90
2023-03-31T01:04:01.794Z,5.00
2023-03-31T01:05:01.765Z,6.60
2023-03-31T01:06:01.714Z,5.50
2023-03-31T01:07:01.701Z,5.40
2023-03-31T01:08:01.684Z,5.40
2023-03-31T01:09:01.677Z,6.40
2023-03-31T01:10:01.679Z,4.90
2023-03-31T01:11:01.669Z,7.30
2023-03-31T01:12:01.642Z,7.40
2023-03-31T01:13:01.639Z,7.60
2023-03-31T01:14:01.620Z,6.00
2023-03-31T01:15:01.632Z,7.80
2023-03-31T01:16:01.631Z,4.60
2023-03-31T01:17:01.680Z,7.50
2023-03-31T01:18:01.709Z,9.90
2023-03-31T01:19:01.574Z,6.30
2023-03-31T01:20:01.566Z,7.10
2023-03-31T01:21:01.567Z,5.70
2023-03-31T01:22:01.557Z,7.20
2023-03-31T01:23:01.532Z,5.80
2023-03-31T01:24:01.512Z,7.70
2023-03-31T01:25:01.545Z,8.40
2023-03-31T01:26:01.502Z,6.30
2023-03-31T01:27:01.483Z,4.60
2023-03-31T01:28:01.474Z,5.90
2023-03-31T01:29:01.476Z,4.90
2023-03-31T01:30:01.440Z,6.00
2023-03-31T01:31:01.460Z,4.70
2023-03-31T01:32:01.423Z,6.20
2023-03-31T01:33:01.462Z,7.40
2023-03-31T01:34:01.432Z,6.40
2023-03-31T01:35:01.394Z,6.80
2023-03-31T01:36:01.398Z,5.50
2023-03-31T01:37:01.378Z,8.20
2023-03-31T01:38:01.350Z,5.00
2023-03-31T01:39:01.348Z,6.90
2023-03-31T01:40:01.352Z,6.30
2023-03-31T01:41:01.354Z,6.70
2023-03-31T01:42:01.353Z,7.80
2023-03-31T01:43:01.312Z,4.90
2023-03-31T01:44:01.307Z,7.50
2023-03-31T01:45:01.290Z,5.80
2023-03-31T01:46:01.293Z,7.50
2023-03-31T01:47:01.296Z,7.50
2023-03-31T01:48:01.302Z,4.60
2023-03-31T01:49:01.237Z,7.30
2023-03-31T01:50:01.222Z,4.40
2023-03-31T01:51:01.235Z,4.80
2023-03-31T01:52:01.216Z,5.60
2023-03-31T01:53:01.200Z,7.30
2023-03-31T01:54:01.185Z,7.00
2023-03-31T01:55:01.233Z,6.60
2023-03-31T01:56:01.196Z,6.10
2023-03-31T01:57:01.279Z,6.40
2023-03-31T01:58:01.128Z,6.90
2023-03-31T01:59:01.127Z,8.00
2023-03-31T02:00:01.121Z,5.90
2023-03-31T02:01:01.109Z,7.60
2023-03-31T02:02:01.162Z,4.40
2023-03-31T02:03:01.176Z,5.80
2023-03-31T02:04:01.146Z,4.20
2023-03-31T02:05:01.073Z,9.30
2023-03-31T02:06:01.101Z,5.00
2023-03-31T02:07:01.048Z,5.40
2023-03-31T02:08:01.034Z,4.70
2023-03-31T02:09:01.014Z,6.60
2023-03-31T02:10:01.028Z,6.70
2023-03-31T02:11:01.016Z,10.80
2023-03-31T02:12:00.991Z,7.20
2023-03-31T02:13:00.967Z,4.60
2023-03-31T02:14:00.953Z,7.20
2023-03-31T02:15:00.955Z,4.90
2023-03-31T02:16:00.962Z,5.80
2023-03-31T02:17:00.940Z,6.50
2023-03-31T02:18:00.966Z,7.10
2023-03-31T02:19:00.919Z,6.50
2023-03-31T02:20:00.888Z,6.40
2023-03-31T02:21:00.987Z,8.30
2023-03-31T02:22:00.874Z,5.10
2023-03-31T02:23:00.868Z,6.50
2023-03-31T02:24:00.866Z,6.30
2023-03-31T02:25:00.833Z,6.20
2023-03-31T02:26:00.828Z,6.40
2023-03-31T02:27:00.824Z,4.70
2023-03-31T02:28:00.815Z,7.20
2023-03-31T02:29:00.814Z,6.10
2023-03-31T02:30:00.802Z,7.50
2023-03-31T02:31:00.766Z,5.20
2023-03-31T02:32:01.009Z,5.30
2023-03-31T02:33:00.783Z,5.10
2023-03-31T02:34:00.738Z,6.60
2023-03-31T02:35:00.726Z,6.70
2023-03-31T02:36:00.837Z,9.00
2023-03-31T02:37:00.708Z,6.00
2023-03-31T02:38:00.718Z,4.70
2023-03-31T02:39:00.723Z,5.70
2023-03-31T02:40:00.713Z,5.10
2023-03-31T02:41:00.673Z,6.10
2023-03-31T02:42:00.665Z,6.80
2023-03-31T02:43:00.672Z,6.90
2023-03-31T02:44:00.625Z,5.90
2023-03-31T02:45:00.622Z,6.10
2023-03-31T02:46:00.644Z,5.90
2023-03-31T02:47:00.630Z,7.00
2023-03-31T02:48:00.639Z,4.50
2023-03-31T02:49:00.584Z,5.70
2023-03-31T02:50:00.581Z,5.70
2023-03-31T02:51:00.555Z,6.40
2023-03-31T02:52:00.581Z,5.60
2023-03-31T02:53:00.544Z,7.00
2023-03-31T02:54:00.593Z,9.00
2023-03-31T02:55:00.504Z,8.80
2023-03-31T02:56:00.516Z,6.90
2023-03-31T02:57:00.583Z,5.70
2023-03-31T02:58:00.496Z,5.60
2023-03-31T02:59:00.461Z,7.20
2023-03-31T03:00:00.457Z,7.60
2023-03-31T03:01:00.462Z,5.80
2023-03-31T03:02:00.481Z,5.50
2023-03-31T03:03:00.499Z,5.10
2023-03-31T03:04:00.408Z,6.70
2023-03-31T03:05:00.404Z,7.60
2023-03-31T03:06:01.809Z,5.70
2023-03-31T03:07:00.487Z,6.10
2023-03-31T03:08:00.424Z,6.20
2023-03-31T03:09:00.344Z,7.70
2023-03-31T03:10:00.343Z,6.00
2023-03-31T03:11:00.335Z,6.60
2023-03-31T03:12:00.320Z,7.50
2023-03-31T03:13:00.320Z,6.20
2023-03-31T03:14:00.312Z,7.70
2023-03-31T03:15:00.296Z,7.30
2023-03-31T03:16:00.286Z,7.20
2023-03-31T03:17:00.338Z,4.30
2023-03-31T03:18:00.373Z,7.40
2023-03-31T03:19:00.241Z,5.80
2023-03-31T03:20:00.300Z,5.70
2023-03-31T03:21:00.231Z,10.00
2023-03-31T03:22:00.260Z,5.80
2023-03-31T03:23:00.212Z,6.90
2023-03-31T03:24:00.194Z,6.10
2023-03-31T03:25:00.180Z,7.70
2023-03-31T03:26:00.182Z,5.60
2023-03-31T03:27:00.159Z,7.90
2023-03-31T03:28:00.162Z,7.50
2023-03-31T03:29:00.140Z,5.50
2023-03-31T03:30:00.147Z,8.60
2023-03-31T03:31:00.177Z,5.60
2023-03-31T03:32:00.158Z,4.90
2023-03-31T03:33:00.160Z,6.00
2023-03-31T03:34:00.120Z,7.40
2023-03-31T03:35:00.180Z,6.30
2023-03-31T03:36:00.088Z,6.60
2023-03-31T03:37:00.050Z,6.80
2023-03-31T03:38:00.046Z,6.60
2023-03-31T03:39:00.037Z,4.30
2023-03-31T03:40:00.037Z,9.70
2023-03-31T03:41:00.013Z,8.00
2023-03-31T03:41:59.988Z,8.90
2023-03-31T03:43:00.110Z,8.00
2023-03-31T03:43:59.980Z,6.30
2023-03-31T03:44:59.968Z,6.50
2023-03-31T03:45:59.982Z,6.30
2023-03-31T03:46:59.986Z,6.10
2023-03-31T03:47:59.960Z,5.20
2023-03-31T03:48:59.925Z,6.90
2023-03-31T03:49:59.931Z,6.70
2023-03-31T03:50:59.904Z,8.60
2023-03-31T03:51:59.886Z,6.10
2023-03-31T03:52:59.937Z,8.00
2023-03-31T03:53:59.883Z,8.50
2023-03-31T03:54:59.848Z,7.70
2023-03-31T03:55:59.835Z,7.60
2023-03-31T03:56:59.822Z,6.50
2023-03-31T03:57:59.827Z,6.00
2023-03-31T03:58:59.838Z,5.50
2023-03-31T03:59:59.794Z,6.50
2023-03-31T04:00:59.773Z,6.20
2023-03-31T04:01:59.848Z,5.00
2023-03-31T04:03:00.102Z,8.60
2023-03-31T04:03:59.747Z,6.60
2023-03-31T04:04:59.785Z,8.50
2023-03-31T04:05:59.718Z,5.30
2023-03-31T04:06:59.723Z,10.00
2023-03-31T04:07:59.842Z,6.00
2023-03-31T04:08:59.678Z,6.90
2023-03-31T04:09:59.674Z,6.40
2023-03-31T04:10:59.668Z,8.90
2023-03-31T04:11:59.663Z,8.30
2023-03-31T04:12:59.856Z,9.50
2023-03-31T04:13:59.634Z,5.10
2023-03-31T04:14:59.622Z,8.30
2023-03-31T04:15:59.628Z,9.60
2023-03-31T04:16:59.629Z,5.90
2023-03-31T04:17:59.860Z,6.60
2023-03-31T04:18:59.575Z,4.60
2023-03-31T04:19:59.562Z,6.70
2023-03-31T04:20:59.561Z,7.00
2023-03-31T04:21:59.543Z,8.90
2023-03-31T04:22:59.536Z,8.40
2023-03-31T04:23:59.525Z,8.70
2023-03-31T04:24:59.544Z,7.30
2023-03-31T04:26:00.485Z,5.50
2023-03-31T04:26:59.511Z,9.40
2023-03-31T04:27:59.480Z,9.20
2023-03-31T04:28:59.469Z,10.20
2023-03-31T04:29:59.474Z,5.90
2023-03-31T04:30:59.455Z,9.90
2023-03-31T04:31:59.519Z,4.00
2023-03-31T04:32:59.456Z,7.90
2023-03-31T04:33:59.474Z,8.40
2023-03-31T04:34:59.392Z,8.90
2023-03-31T04:35:59.400Z,5.70
2023-03-31T04:36:59.374Z,9.60
2023-03-31T04:37:59.420Z,4.10
2023-03-31T04:38:59.386Z,5.80
2023-03-31T04:39:59.336Z,7.30
2023-03-31T04:40:59.329Z,7.60
2023-03-31T04:41:59.528Z,7.90
2023-03-31T04:42:59.400Z,8.30
2023-03-31T04:43:59.298Z,10.10
2023-03-31T04:44:59.278Z,7.20
2023-03-31T04:45:59.298Z,8.50
2023-03-31T04:46:59.290Z,5.20
2023-03-31T04:47:59.281Z,8.10
2023-03-31T04:48:59.254Z,6.40
2023-03-31T04:49:59.226Z,7.80
2023-03-31T04:50:59.206Z,9.70
2023-03-31T04:51:59.203Z,5.40
2023-03-31T04:52:59.262Z,8.50
2023-03-31T04:53:59.210Z,7.40
2023-03-31T04:54:59.176Z,6.60
2023-03-31T04:55:59.166Z,9.70
2023-03-31T04:56:59.215Z,10.60
2023-03-31T04:57:59.137Z,7.50
2023-03-31T04:58:59.151Z,7.70
2023-03-31T04:59:59.148Z,9.60
2023-03-31T05:00:59.157Z,9.40
2023-03-31T05:01:59.096Z,8.10
2023-03-31T05:02:59.218Z,6.90
2023-03-31T05:03:59.096Z,6.10
2023-03-31T05:04:59.078Z,13.60
2023-03-31T05:05:59.052Z,7.70
2023-03-31T05:06:59.040Z,7.40
2023-03-31T05:07:59.056Z,9.90
2023-03-31T05:08:59.028Z,9.70
2023-03-31T05:09:59.011Z,7.40
2023-03-31T05:10:59.085Z,8.90
2023-03-31T05:11:58.992Z,8.40
2023-03-31T05:12:58.986Z,14.90
2023-03-31T05:13:59.010Z,12.40
2023-03-31T05:14:58.956Z,8.80
2023-03-31T05:15:58.949Z,10.40
2023-03-31T05:16:58.999Z,9.80
2023-03-31T05:17:59.033Z,7.90
2023-03-31T05:18:58.938Z,9.90
2023-03-31T05:19:58.912Z,10.80
2023-03-31T05:20:58.893Z,9.90
2023-03-31T05:21:58.908Z,8.20
2023-03-31T05:22:58.884Z,9.60
2023-03-31T05:23:58.899Z,9.50
2023-03-31T05:24:58.894Z,9.00
2023-03-31T05:25:59.650Z,9.80
2023-03-31T05:26:58.856Z,9.20
2023-03-31T05:27:58.822Z,10.00
2023-03-31T05:28:58.816Z,10.10
2023-03-31T05:29:58.795Z,9.80
2023-03-31T05:30:58.783Z,12.40
2023-03-31T05:31:58.819Z,9.00
2023-03-31T05:32:58.794Z,10.20
2023-03-31T05:33:58.763Z,9.30
2023-03-31T05:34:58.737Z,7.50
2023-03-31T05:35:58.764Z,6.80
2023-03-31T05:36:58.723Z,10.30
2023-03-31T05:37:58.725Z,8.30
2023-03-31T05:38:58.789Z,9.00
2023-03-31T05:39:58.681Z,9.90
2023-03-31T05:40:58.774Z,8.50
2023-03-31T05:41:58.670Z,7.40
2023-03-31T05:42:58.652Z,10.20
2023-03-31T05:43:58.669Z,7.40
2023-03-31T05:44:58.637Z,9.00
2023-03-31T05:45:58.672Z,8.60
2023-03-31T05:46:58.611Z,7.90
2023-03-31T05:47:58.678Z,8.80
2023-03-31T05:48:58.595Z,9.00
2023-03-31T05:49:58.583Z,10.40
2023-03-31T05:50:58.559Z,8.90
2023-03-31T05:51:58.748Z,12.20
2023-03-31T05:52:58.532Z,7.50
2023-03-31T05:53:58.561Z,7.10
2023-03-31T05:54:58.603Z,8.40
2023-03-31T05:55:58.532Z,12.40
2023-03-31T05:56:58.516Z,7.40
2023-03-31T05:57:58.481Z,6.60
2023-03-31T05:58:58.496Z,9.70
2023-03-31T05:59:58.490Z,10.00
2023-03-31T06:00:58.483Z,8.60
2023-03-31T06:01:58.643Z,9.20
2023-03-31T06:02:58.526Z,7.50
2023-03-31T06:03:58.514Z,9.40
2023-03-31T06:04:58.414Z,7.90
2023-03-31T06:05:58.394Z,10.10
2023-03-31T06:06:58.389Z,11.00
2023-03-31T06:07:58.380Z,6.80
2023-03-31T06:08:58.365Z,8.60
2023-03-31T06:09:58.419Z,7.80
2023-03-31T06:10:58.344Z,9.40
2023-03-31T06:11:58.339Z,7.90
2023-03-31T06:12:58.324Z,9.60
2023-03-31T06:13:58.322Z,10.50
2023-03-31T06:14:58.311Z,7.30
2023-03-31T06:15:58.363Z,6.70
2023-03-31T06:16:58.270Z,9.50
2023-03-31T06:17:58.417Z,7.40
2023-03-31T06:18:58.262Z,15.10
2023-03-31T06:19:58.250Z,11.80
2023-03-31T06:20:58.228Z,11.90
2023-03-31T06:21:58.220Z,7.70
2023-03-31T06:22:58.218Z,7.00
2023-03-31T06:23:58.253Z,10.40
2023-03-31T06:24:58.203Z,10.30
2023-03-31T06:25:58.199Z,8.40
2023-03-31T06:26:58.155Z,8.40
2023-03-31T06:27:58.157Z,7.40
2023-03-31T06:28:58.146Z,8.20
2023-03-31T06:29:58.161Z,12.70
2023-03-31T06:30:58.119Z,10.10
2023-03-31T06:31:58.144Z,9.40
2023-03-31T06:32:58.120Z,8.30
2023-03-31T06:33:58.140Z,7.10
2023-03-31T06:34:58.299Z,5.40
2023-03-31T06:35:58.201Z,7.40
2023-03-31T06:36:58.048Z,10.80
2023-03-31T06:37:58.110Z,8.30
2023-03-31T06:38:58.093Z,6.80
2023-03-31T06:39:58.049Z,7.30
2023-03-31T06:40:58.021Z,6.00
2023-03-31T06:41:57.995Z,7.70
2023-03-31T06:42:57.989Z,7.10
2023-03-31T06:43:57.986Z,7.90
2023-03-31T06:44:58.072Z,9.00
2023-03-31T06:45:57.982Z,7.70
2023-03-31T06:46:57.994Z,7.60
2023-03-31T06:47:58.153Z,6.40
2023-03-31T06:48:57.918Z,6.40
2023-03-31T06:49:57.902Z,7.40
2023-03-31T06:50:57.919Z,7.60
2023-03-31T06:51:57.890Z,7.70
2023-03-31T06:52:57.877Z,9.10
2023-03-31T06:53:57.876Z,8.20
2023-03-31T06:54:57.870Z,6.70
2023-03-31T06:55:57.863Z,5.20
2023-03-31T06:56:57.882Z,8.50
2023-03-31T06:57:57.893Z,7.20
2023-03-31T06:58:57.807Z,8.00
2023-03-31T06:59:57.797Z,7.20
2023-03-31T07:00:57.867Z,8.20
2023-03-31T07:01:58.011Z,5.80
2023-03-31T07:02:57.851Z,7.60
2023-03-31T07:03:57.747Z,8.00
2023-03-31T07:04:57.800Z,9.80
2023-03-31T07:05:57.761Z,6.60
2023-03-31T07:06:57.718Z,7.80
2023-03-31T07:07:57.730Z,8.90
2023-03-31T07:08:57.718Z,6.90
2023-03-31T07:09:57.682Z,6.10
2023-03-31T07:10:57.736Z,7.30
2023-03-31T07:11:57.708Z,6.70
2023-03-31T07:12:57.656Z,9.30
2023-03-31T07:13:57.667Z,9.20
2023-03-31T07:14:57.636Z,6.80
2023-03-31T07:15:57.697Z,8.10
2023-03-31T07:16:57.606Z,5.60
2023-03-31T07:17:57.656Z,7.20
2023-03-31T07:18:57.600Z,8.50
2023-03-31T07:19:57.578Z,9.80
2023-03-31T07:20:57.585Z,5.10
2023-03-31T07:21:57.554Z,6.80
2023-03-31T07:22:57.565Z,7.90
2023-03-31T07:23:57.569Z,7.60
2023-03-31T07:24:57.535Z,7.00
2023-03-31T07:25:57.520Z,6.50
2023-03-31T07:26:57.550Z,6.20
2023-03-31T07:27:57.487Z,5.90
2023-03-31T07:28:57.689Z,7.10
2023-03-31T07:29:57.484Z,7.10
2023-03-31T07:30:57.478Z,5.30
2023-03-31T07:31:57.484Z,4.70
2023-03-31T07:32:57.489Z,6.20
2023-03-31T07:33:57.419Z,10.70
2023-03-31T07:34:57.435Z,10.80
2023-03-31T07:36:10.942Z,7.10
2023-03-31T07:36:57.480Z,10.20
2023-03-31T07:37:57.376Z,11.10
2023-03-31T07:38:57.382Z,5.90
2023-03-31T07:39:57.384Z,8.20
2023-03-31T07:41:05.983Z,6.80
2023-03-31T07:41:57.347Z,6.60
2023-03-31T07:42:57.330Z,10.30
2023-03-31T07:43:57.325Z,8.10
2023-03-31T07:44:57.302Z,9.90
2023-03-31T07:45:57.346Z,8.30
2023-03-31T07:46:57.303Z,10.60
2023-03-31T07:47:57.286Z,6.70
2023-03-31T07:48:57.290Z,7.60
2023-03-31T07:49:57.254Z,10.30
2023-03-31T07:50:57.234Z,9.90
2023-03-31T07:51:57.250Z,11.80
2023-03-31T07:52:57.217Z,7.70
2023-03-31T07:53:57.205Z,10.40
2023-03-31T07:54:57.243Z,8.90
2023-03-31T07:55:57.343Z,14.20
2023-03-31T07:56:57.258Z,10.70
2023-03-31T07:57:57.150Z,7.30
2023-03-31T07:58:57.901Z,8.70
2023-03-31T07:59:57.159Z,15.00
2023-03-31T08:00:57.136Z,9.40
2023-03-31T08:01:57.132Z,12.40
2023-03-31T08:02:57.208Z,9.20
2023-03-31T08:03:57.143Z,8.60
2023-03-31T08:04:57.080Z,9.00
2023-03-31T08:05:57.140Z,23.00
2023-03-31T08:06:57.124Z,11.50
2023-03-31T08:07:57.043Z,8.10
2023-03-31T08:08:57.083Z,15.20
2023-03-31T08:09:57.130Z,11.50
2023-03-31T08:10:57.046Z,14.90
2023-03-31T08:11:57.038Z,10.50
2023-03-31T08:12:56.996Z,12.90
2023-03-31T08:13:56.975Z,14.10
2023-03-31T08:14:57.013Z,10.20
2023-03-31T08:15:56.988Z,13.30
2023-03-31T08:16:56.985Z,16.30
2023-03-31T08:17:56.966Z,16.10
2023-03-31T08:18:56.948Z,15.40
2023-03-31T08:19:57.621Z,15.50
2023-03-31T08:20:56.929Z,10.90
2023-03-31T08:21:56.898Z,11.90
2023-03-31T08:22:56.925Z,11.00
2023-03-31T08:23:56.893Z,11.10
2023-03-31T08:24:56.858Z,12.00
2023-03-31T08:25:56.853Z,11.40
2023-03-31T08:26:56.836Z,10.80
2023-03-31T08:27:56.844Z,8.60
2023-03-31T08:28:56.823Z,9.30
2023-03-31T08:29:56.803Z,10.80
2023-03-31T08:30:56.881Z,12.10
2023-03-31T08:31:56.812Z,6.70
2023-03-31T08:32:56.870Z,8.10
2023-03-31T08:33:56.883Z,6.50
2023-03-31T08:34:56.765Z,8.20
2023-03-31T08:35:56.771Z,10.50
2023-03-31T08:36:56.808Z,9.40
2023-03-31T08:37:56.725Z,8.90
2023-03-31T08:38:56.712Z,10.00
2023-03-31T08:39:56.708Z,5.90
2023-03-31T08:40:56.714Z,8.80
2023-03-31T08:41:56.687Z,6.60
2023-03-31T08:42:56.697Z,8.90
2023-03-31T08:43:56.650Z,6.60
2023-03-31T08:44:56.697Z,9.90
2023-03-31T08:45:56.645Z,11.30
2023-03-31T08:46:56.825Z,9.60
2023-03-31T08:47:56.725Z,8.10
2023-03-31T08:48:56.605Z,5.30
2023-03-31T08:49:56.596Z,7.20
2023-03-31T08:50:56.582Z,6.90
2023-03-31T08:51:56.574Z,5.00
2023-03-31T08:52:56.564Z,9.60
2023-03-31T08:53:56.557Z,5.20
2023-03-31T08:54:56.533Z,6.20
2023-03-31T08:55:56.518Z,7.40
2023-03-31T08:56:56.570Z,8.30
2023-03-31T08:57:56.563Z,5.50
2023-03-31T08:58:56.496Z,6.20
2023-03-31T08:59:56.524Z,4.10
2023-03-31T09:00:56.555Z,7.40
2023-03-31T09:01:57.028Z,6.50
2023-03-31T09:02:56.620Z,2.70
2023-03-31T09:03:56.505Z,5.30
2023-03-31T09:04:56.436Z,6.70
2023-03-31T09:06:12.671Z,3.20
2023-03-31T09:06:56.413Z,5.10
2023-03-31T09:07:56.452Z,2.80
2023-03-31T09:08:56.370Z,5.30
2023-03-31T09:09:56.393Z,6.90
2023-03-31T09:10:56.353Z,4.00
2023-03-31T09:11:56.367Z,4.10
2023-03-31T09:12:56.391Z,4.40
2023-03-31T09:13:56.369Z,3.90
2023-03-31T09:14:56.386Z,4.50
2023-03-31T09:15:56.311Z,3.30
2023-03-31T09:16:56.335Z,4.20
2023-03-31T09:17:56.351Z,5.00
2023-03-31T09:18:56.315Z,5.30
2023-03-31T09:19:56.296Z,5.00
2023-03-31T09:20:56.248Z,3.80
2023-03-31T09:21:56.267Z,5.00
2023-03-31T09:22:56.275Z,3.10
2023-03-31T09:23:56.199Z,5.70
2023-03-31T09:24:56.288Z,4.40
2023-03-31T09:25:56.181Z,3.70
2023-03-31T09:26:56.188Z,3.70
2023-03-31T09:27:56.580Z,4.00
2023-03-31T09:28:56.162Z,4.10
2023-03-31T09:29:56.147Z,4.60
2023-03-31T09:30:56.160Z,3.60
2023-03-31T09:31:56.350Z,2.90
2023-03-31T09:32:56.236Z,3.80
2023-03-31T09:33:56.135Z,7.70
2023-03-31T09:34:56.084Z,2.90
2023-03-31T09:35:56.088Z,5.10
2023-03-31T09:36:56.118Z,8.10
2023-03-31T09:37:56.124Z,4.60
2023-03-31T09:38:56.096Z,3.00
2023-03-31T09:39:56.068Z,3.00
2023-03-31T09:40:56.053Z,4.00
2023-03-31T09:41:56.050Z,6.20
2023-03-31T09:42:56.037Z,2.70
2023-03-31T09:43:56.002Z,5.30
2023-03-31T09:44:55.983Z,4.30
2023-03-31T09:46:55.981Z,3.10
2023-03-31T09:47:56.006Z,3.80
2023-03-31T09:48:55.972Z,5.80
2023-03-31T09:49:55.944Z,4.00
2023-03-31T09:50:55.920Z,6.30
2023-03-31T09:51:55.999Z,7.00
2023-03-31T09:52:55.938Z,3.10
2023-03-31T09:53:55.867Z,3.30
2023-03-31T09:54:55.922Z,4.00
2023-03-31T09:55:55.848Z,2.40
2023-03-31T09:56:55.869Z,4.00
2023-03-31T09:57:55.941Z,2.00
2023-03-31T09:58:55.819Z,3.00
2023-03-31T09:59:55.812Z,2.10
2023-03-31T10:00:55.836Z,3.70
2023-03-31T10:01:55.830Z,3.70
2023-03-31T10:02:55.854Z,3.50
2023-03-31T10:03:55.786Z,2.80
2023-03-31T10:04:55.759Z,2.80
2023-03-31T10:05:55.735Z,3.80
2023-03-31T10:06:55.783Z,2.60
2023-03-31T10:07:55.720Z,3.00
2023-03-31T10:08:55.732Z,3.10
2023-03-31T10:09:55.694Z,2.80
2023-03-31T10:10:55.714Z,2.20
2023-03-31T10:11:55.679Z,3.70
2023-03-31T10:12:55.688Z,3.30
2023-03-31T10:13:55.703Z,2.60
2023-03-31T10:14:55.650Z,3.20
2023-03-31T10:15:55.751Z,2.60
2023-03-31T10:16:55.631Z,3.40
2023-03-31T10:17:55.829Z,3.00
2023-03-31T10:18:55.750Z,2.70
2023-03-31T10:19:55.602Z,2.10
2023-03-31T10:20:55.612Z,2.10
2023-03-31T10:21:55.599Z,4.60
2023-03-31T10:22:55.572Z,3.00
2023-03-31T10:23:55.565Z,3.20
2023-03-31T10:24:55.540Z,4.50
2023-03-31T10:25:55.541Z,3.50
2023-03-31T10:26:55.524Z,2.30
2023-03-31T10:27:55.493Z,4.10
2023-03-31T10:28:55.575Z,2.30
2023-03-31T10:29:55.495Z,2.50
2023-03-31T10:30:55.501Z,3.20
2023-03-31T10:31:55.493Z,3.80
2023-03-31T10:32:55.472Z,4.40
2023-03-31T10:33:55.456Z,4.10
2023-03-31T10:34:55.948Z,4.20
2023-03-31T10:35:55.477Z,3.70
2023-03-31T10:36:55.396Z,4.40
2023-03-31T10:37:55.377Z,4.70
2023-03-31T10:38:55.442Z,2.60
2023-03-31T10:39:55.379Z,3.30
2023-03-31T10:40:55.391Z,4.00
2023-03-31T10:41:55.349Z,7.10
2023-03-31T10:42:55.327Z,5.30
2023-03-31T10:43:55.377Z,3.10
2023-03-31T10:44:55.325Z,3.40
2023-03-31T10:45:55.344Z,2.20
2023-03-31T10:46:55.313Z,3.20
2023-03-31T10:47:55.310Z,3.60
2023-03-31T10:48:55.274Z,2.30
2023-03-31T10:49:55.334Z,2.40
2023-03-31T10:50:55.243Z,4.60
2023-03-31T10:51:55.230Z,3.60
2023-03-31T10:52:55.238Z,3.80
2023-03-31T10:53:55.218Z,2.00
2023-03-31T10:54:55.253Z,4.00
2023-03-31T10:55:55.202Z,4.60
2023-03-31T10:56:55.238Z,5.20
2023-03-31T10:57:55.197Z,2.50
2023-03-31T10:59:04.574Z,3.00
2023-03-31T10:59:55.173Z,2.50
2023-03-31T11:00:55.168Z,8.10
2023-03-31T11:01:55.646Z,6.20
2023-03-31T11:02:55.185Z,3.50
2023-03-31T11:03:55.262Z,4.90
2023-03-31T11:04:55.091Z,4.80
2023-03-31T11:05:55.076Z,3.30
2023-03-31T11:06:55.096Z,3.60
2023-03-31T11:07:55.058Z,5.30
2023-03-31T11:08:55.040Z,3.80
2023-03-31T11:09:55.047Z,3.30
2023-03-31T11:10:55.086Z,2.80
2023-03-31T11:11:55.003Z,4.80
2023-03-31T11:12:55.044Z,4.70
2023-03-31T11:13:54.991Z,4.30
2023-03-31T11:14:54.983Z,3.30
2023-03-31T11:15:55.000Z,5.60
2023-03-31T11:16:54.992Z,5.20
2023-03-31T11:17:54.959Z,4.40
2023-03-31T11:18:54.942Z,5.80
2023-03-31T11:19:54.933Z,2.70
2023-03-31T11:20:54.912Z,5.90
2023-03-31T11:21:54.903Z,5.40
2023-03-31T11:22:54.992Z,2.60
2023-03-31T11:23:54.924Z,4.50
2023-03-31T11:24:54.956Z,6.00
2023-03-31T11:25:54.898Z,4.60
2023-03-31T11:26:54.840Z,3.00
2023-03-31T11:27:54.896Z,2.00
2023-03-31T11:28:54.819Z,2.40
2023-03-31T11:29:54.841Z,3.10
2023-03-31T11:30:54.797Z,1.70
2023-03-31T11:31:54.841Z,4.40
2023-03-31T11:32:54.863Z,2.80
2023-03-31T11:33:54.821Z,4.90
2023-03-31T11:34:54.771Z,2.00
2023-03-31T11:35:54.800Z,2.00
2023-03-31T11:36:54.777Z,1.00
2023-03-31T11:37:54.788Z,2.80
2023-03-31T11:38:54.755Z,0.90
2023-03-31T11:39:54.768Z,2.80
2023-03-31T11:40:54.701Z,1.60
2023-03-31T11:41:54.704Z,1.10
2023-03-31T11:42:54.659Z,2.80
2023-03-31T11:43:54.657Z,2.40
2023-03-31T11:44:54.702Z,3.50
2023-03-31T11:45:54.772Z,2.00
2023-03-31T11:46:54.614Z,1.50
2023-03-31T11:47:54.648Z,2.70
2023-03-31T11:48:54.591Z,1.60
2023-03-31T11:49:54.582Z,1.30
2023-03-31T11:50:54.673Z,3.50
2023-03-31T11:51:54.589Z,2.50
2023-03-31T11:52:54.566Z,2.50
2023-03-31T11:53:54.576Z,4.40
2023-03-31T11:54:54.567Z,2.00
2023-03-31T11:55:54.563Z,1.00
2023-03-31T11:56:54.598Z,1.30
2023-03-31T11:57:54.527Z,2.70
2023-03-31T11:58:54.528Z,3.30
2023-03-31T11:59:54.495Z,2.80
2023-03-31T12:00:54.569Z,1.50
2023-03-31T12:01:54.457Z,1.80
2023-03-31T12:02:54.473Z,1.80
2023-03-31T12:03:54.582Z,3.60
2023-03-31T12:04:54.417Z,1.80
2023-03-31T12:05:54.531Z,3.50
2023-03-31T12:06:54.421Z,2.30
2023-03-31T12:07:54.635Z,3.20
2023-03-31T12:08:54.374Z,2.00
2023-03-31T12:09:54.374Z,1.10
2023-03-31T12:10:54.362Z,1.40
2023-03-31T12:11:54.347Z,2.20
2023-03-31T12:12:54.333Z,1.20
2023-03-31T12:13:54.326Z,1.30
2023-03-31T12:14:54.346Z,1.70
2023-03-31T12:15:54.329Z,1.60
2023-03-31T12:16:54.298Z,2.20
2023-03-31T12:17:54.323Z,1.60
2023-03-31T12:18:54.595Z,3.00
2023-03-31T12:19:54.252Z,0.90
2023-03-31T12:20:54.256Z,1.80
2023-03-31T12:21:54.280Z,1.60
2023-03-31T12:22:54.227Z,1.90
2023-03-31T12:23:54.211Z,2.00
2023-03-31T12:24:54.221Z,2.60
2023-03-31T12:25:54.202Z,2.50
2023-03-31T12:26:54.218Z,2.00
2023-03-31T12:27:54.217Z,1.40
2023-03-31T12:28:54.153Z,3.10
2023-03-31T12:29:54.167Z,2.40
2023-03-31T12:30:55.023Z,2.90
2023-03-31T12:31:54.148Z,1.30
2023-03-31T12:32:54.221Z,1.60
2023-03-31T12:33:54.102Z,1.10
2023-03-31T12:34:54.090Z,2.80
2023-03-31T12:35:54.119Z,1.70
2023-03-31T12:36:55.455Z,1.10
2023-03-31T12:37:54.090Z,1.60
2023-03-31T12:38:54.065Z,3.90
2023-03-31T12:39:54.056Z,2.20
2023-03-31T12:40:54.056Z,2.60
2023-03-31T12:41:54.025Z,1.20
2023-03-31T12:42:54.063Z,1.50
2023-03-31T12:43:53.987Z,1.20
2023-03-31T12:44:53.983Z,0.90
2023-03-31T12:45:54.011Z,2.30
2023-03-31T12:46:54.710Z,2.50
2023-03-31T12:47:54.051Z,1.50
2023-03-31T12:48:55.403Z,2.30
2023-03-31T12:49:53.949Z,2.00
2023-03-31T12:50:53.918Z,3.50
2023-03-31T12:51:53.913Z,1.40
2023-03-31T12:52:53.915Z,1.10
2023-03-31T12:53:53.882Z,2.90
2023-03-31T12:54:53.866Z,3.70
2023-03-31T12:55:53.941Z,1.50
2023-03-31T12:56:53.887Z,2.10
2023-03-31T12:57:53.930Z,2.60
2023-03-31T12:58:53.843Z,3.70
2023-03-31T12:59:54.073Z,1.90
2023-03-31T13:00:53.864Z,2.40
2023-03-31T13:01:53.825Z,3.80
2023-03-31T13:02:53.826Z,2.80
2023-03-31T13:03:53.783Z,2.70
2023-03-31T13:04:53.755Z,3.10
2023-03-31T13:05:53.778Z,1.70
2023-03-31T13:06:53.761Z,3.40
2023-03-31T13:07:53.737Z,4.20
2023-03-31T13:08:53.719Z,2.40
2023-03-31T13:09:53.704Z,3.20
2023-03-31T13:10:53.738Z,1.70
2023-03-31T13:11:53.697Z,1.30
2023-03-31T13:12:53.951Z,3.10
2023-03-31T13:14:00.348Z,2.60
2023-03-31T13:14:53.653Z,2.70
2023-03-31T13:15:53.660Z,1.20
2023-03-31T13:16:55.455Z,3.80